West Frankfort, Illinois
Current Conditions -  °F | °C
As of 8:15 PM on Sunday 25 Jan 2015 (Local Time) from KMWA Reporting Station
Haze Haze  
Wind Chill: 29°   Ceiling: 500
Heat Index: 37°   Visibility: 5mi
Dew Point: 36°   Wind: 15mph
Humidity: 93%   Direction: 340°NNW
Pressure: 29.83"   Gusts: 22mph
Location:  37.9°N, 88.92°W
Report Text: KMWA 260215Z AUTO 34013G19KT 300V360 5SM BR OVC005 03/02 A2983 RMK AO2
Loading
Personal Weather Stations






























Interactive Weather Map New forecast layout! Learn more

10-Day Weather Forecast

Advertisements
Track Severe Weather on mobile